Time;durP1;ratioP1;P1;durP2;ratioP2;P2;SDS_P1;SDS_P2;PMS_P1;PMS_P2;Temp;Humidity;BMP_temperature;BMP_pressure;BME280_temperature;BME280_humidity;BME280_pressure;Samples;Min_cycle;Max_cycle;Signal;HPM_P1;HPM_P2
2021/09/17 00:00:36;;;;;;;2.37;0.70;;;;;;;15.61;79.11;101435.50;5027905;28;20696;-78
2021/09/17 00:03:02;;;;;;;2.67;0.70;;;;;;;15.59;79.71;101437.22;5013458;28;20179;-78
2021/09/17 00:05:28;;;;;;;5.83;1.13;;;;;;;15.60;79.69;101443.22;5013127;28;20194;-78
2021/09/17 00:07:53;;;;;;;4.03;0.80;;;;;;;15.58;78.82;101439.78;5012000;28;20194;-77
2021/09/17 00:10:19;;;;;;;5.17;1.30;;;;;;;15.58;79.61;101442.38;5011952;28;20207;-77
2021/09/17 00:12:45;;;;;;;3.00;0.80;;;;;;;15.55;79.81;101434.59;5028353;28;20191;-77
2021/09/17 00:15:12;;;;;;;5.67;1.03;;;;;;;15.54;79.41;101436.31;4995277;28;20195;-77
2021/09/17 00:17:38;;;;;;;5.03;0.87;;;;;;;15.54;79.84;101443.19;5011602;28;20692;-77
2021/09/17 00:20:07;;;;;;;2.97;0.97;;;;;;;15.50;80.11;101439.72;5013081;28;20222;-77
2021/09/17 00:22:32;;;;;;;3.57;0.93;;;;;;;15.49;80.20;101432.84;4995176;28;20286;-78
2021/09/17 00:24:58;;;;;;;3.00;0.90;;;;;;;15.43;80.48;101431.91;5012761;28;20219;-78
2021/09/17 00:27:23;;;;;;;4.90;1.17;;;;;;;15.42;80.75;101435.34;5031788;28;20171;-77
2021/09/17 00:29:49;;;;;;;2.70;1.00;;;;;;;15.41;81.18;101429.31;4999650;28;20659;-77
2021/09/17 00:32:14;;;;;;;3.80;1.10;;;;;;;15.39;80.73;101435.31;5015587;28;20645;-78
2021/09/17 00:34:39;;;;;;;3.63;0.90;;;;;;;15.38;80.81;101425.84;5015060;28;20184;-77
2021/09/17 00:37:05;;;;;;;2.13;0.77;;;;;;;15.37;81.40;101421.56;5015772;28;20473;-77
2021/09/17 00:39:30;;;;;;;2.47;0.87;;;;;;;15.37;80.95;101432.72;5032032;28;20214;-77
2021/09/17 00:41:57;;;;;;;2.97;1.00;;;;;;;15.37;80.13;101430.13;5017295;28;20182;-77
2021/09/17 00:44:24;;;;;;;2.43;1.13;;;;;;;15.38;80.75;101431.84;5015578;28;20187;-77
2021/09/17 00:46:51;;;;;;;5.37;1.37;;;;;;;15.38;81.28;101429.28;5016921;28;20486;-77
2021/09/17 00:49:16;;;;;;;4.53;1.20;;;;;;;15.38;81.72;101431.00;5032391;28;20206;-78
2021/09/17 00:51:42;;;;;;;3.77;1.27;;;;;;;15.37;81.92;101434.44;5015776;28;20207;-77
2021/09/17 00:54:07;;;;;;;3.17;1.00;;;;;;;15.34;81.87;101427.50;5015622;28;20245;-77
2021/09/17 00:56:33;;;;;;;4.73;1.43;;;;;;;15.36;81.91;101422.38;5015439;28;20207;-77
2021/09/17 00:58:59;;;;;;;5.37;1.33;;;;;;;15.34;82.49;101426.66;4999155;28;20711;-78
2021/09/17 01:01:24;;;;;;;3.57;0.90;;;;;;;15.34;82.65;101422.34;5016839;28;20738;-77
2021/09/17 01:03:49;;;;;;;4.37;1.07;;;;;;;15.34;82.61;101419.78;5015796;28;20904;-78
2021/09/17 01:06:15;;;;;;;6.67;1.27;;;;;;;15.34;82.73;101416.34;5032003;28;20310;-78
2021/09/17 01:08:40;;;;;;;2.27;1.10;;;;;;;15.31;82.98;101419.72;5016385;28;20334;-76
2021/09/17 01:11:07;;;;;;;3.60;1.07;;;;;;;15.34;82.68;101429.25;5015562;28;20203;-78
2021/09/17 01:13:34;;;;;;;1.73;0.80;;;;;;;15.33;82.68;101420.59;5015469;28;20233;-78
2021/09/17 01:15:59;;;;;;;2.80;0.83;;;;;;;15.32;82.94;101412.84;5014471;28;20190;-77
2021/09/17 01:18:26;;;;;;;4.33;1.30;;;;;;;15.31;82.74;101416.28;5032340;28;20187;-77
2021/09/17 01:20:56;;;;;;;6.17;1.00;;;;;;;15.32;83.02;101421.47;5016463;28;20219;-77
2021/09/17 01:23:21;;;;;;;3.80;1.00;;;;;;;15.29;82.65;101425.72;5015280;28;20199;-77
2021/09/17 01:25:47;;;;;;;5.03;1.80;;;;;;;15.30;83.03;101422.28;5016743;28;20191;-77
2021/09/17 01:28:12;;;;;;;5.03;1.33;;;;;;;15.30;83.41;101430.03;5031555;28;20175;-77
2021/09/17 01:30:38;;;;;;;4.20;1.37;;;;;;;15.25;84.27;101427.44;5016304;28;20226;-77
2021/09/17 01:33:04;;;;;;;3.67;1.20;;;;;;;15.22;83.65;101426.50;5016481;28;20203;-78
2021/09/17 01:35:29;;;;;;;3.03;1.00;;;;;;;15.24;83.90;101424.81;5016780;28;20652;-77
2021/09/17 01:37:55;;;;;;;6.53;1.73;;;;;;;15.24;83.72;101424.81;5015451;28;20199;-78
2021/09/17 01:40:20;;;;;;;4.10;1.30;;;;;;;15.21;82.88;101417.03;5015572;28;20219;-78
2021/09/17 01:42:46;;;;;;;4.27;1.03;;;;;;;15.23;82.38;101423.06;4998384;28;20193;-77
2021/09/17 01:45:13;;;;;;;4.67;0.90;;;;;;;15.20;82.63;101413.59;5016265;28;20234;-78
2021/09/17 01:47:39;;;;;;;5.73;1.40;;;;;;;15.21;82.61;101423.09;5014767;28;20627;-78
2021/09/17 01:50:06;;;;;;;2.30;1.10;;;;;;;15.21;81.81;101419.63;5031189;28;20235;-77
2021/09/17 01:52:31;;;;;;;3.10;0.80;;;;;;;15.21;81.99;101417.91;5031507;28;20187;-77
2021/09/17 01:54:57;;;;;;;3.13;1.13;;;;;;;15.22;81.27;101414.47;5014694;28;20217;-77
2021/09/17 01:57:22;;;;;;;2.00;0.80;;;;;;;15.22;81.51;101411.03;5016050;28;20203;-77
2021/09/17 01:59:47;;;;;;;1.80;0.80;;;;;;;15.22;81.06;101416.19;4998020;28;20207;-78
2021/09/17 02:02:13;;;;;;;4.77;0.90;;;;;;;15.21;79.63;101419.63;5015664;28;20183;-77
2021/09/17 02:04:38;;;;;;;4.40;1.10;;;;;;;15.21;80.22;101412.75;5016137;28;20226;-77
2021/09/17 02:07:04;;;;;;;2.47;0.83;;;;;;;15.17;80.10;101421.31;5016081;28;20175;-77
2021/09/17 02:09:29;;;;;;;4.17;0.90;;;;;;;15.18;79.69;101411.84;5014997;28;20183;-77
2021/09/17 02:11:54;;;;;;;3.73;0.90;;;;;;;15.17;79.69;101407.53;5016160;28;20273;-77
2021/09/17 02:14:20;;;;;;;3.10;1.23;;;;;;;15.19;79.00;101414.44;5016086;28;20188;-77
2021/09/17 02:16:45;;;;;;;3.10;0.80;;;;;;;15.16;79.19;101406.69;4998365;28;20211;-78
2021/09/17 02:19:10;;;;;;;4.27;0.70;;;;;;;15.17;78.84;101418.72;5015927;28;20249;-77
2021/09/17 02:21:39;;;;;;;3.10;0.70;;;;;;;15.16;79.04;101409.28;5031929;28;20215;-77
2021/09/17 02:24:05;;;;;;;2.80;1.43;;;;;;;15.16;78.38;101417.00;5032293;28;20191;-77
2021/09/17 02:26:31;;;;;;;2.50;0.90;;;;;;;15.14;78.90;101413.53;5015831;28;20215;-78
2021/09/17 02:28:56;;;;;;;2.97;0.80;;;;;;;15.16;78.48;101411.84;5031544;28;20345;-77
2021/09/17 02:31:22;;;;;;;2.50;0.83;;;;;;;15.15;78.52;101415.25;5014111;28;20207;-77
2021/09/17 02:33:47;;;;;;;1.77;0.80;;;;;;;15.15;78.47;101417.00;5015078;28;20707;-77
2021/09/17 02:36:12;;;;;;;4.77;1.00;;;;;;;15.16;78.48;101416.13;4997858;28;20198;-77
2021/09/17 02:38:38;;;;;;;1.53;0.57;;;;;;;15.15;78.70;101414.41;5015341;28;20179;-77
2021/09/17 02:41:03;;;;;;;3.50;0.90;;;;;;;15.14;78.23;101410.94;5030435;28;20300;-78
2021/09/17 02:43:29;;;;;;;4.80;0.80;;;;;;;15.14;78.34;101407.53;5016483;28;20187;-78
2021/09/17 02:45:55;;;;;;;2.40;0.80;;;;;;;15.14;78.02;101407.53;5014745;28;20191;-78
2021/09/17 02:48:20;;;;;;;4.27;0.77;;;;;;;15.13;78.18;101398.91;4998044;28;20278;-78
2021/09/17 02:50:45;;;;;;;5.70;1.00;;;;;;;15.14;78.14;101400.63;5013476;28;20207;-78
2021/09/17 02:53:11;;;;;;;2.80;0.70;;;;;;;15.13;77.46;101409.22;5015054;28;20657;-77
2021/09/17 02:55:36;;;;;;;4.17;0.93;;;;;;;15.13;77.76;101406.66;5014106;28;20600;-77
2021/09/17 02:58:05;;;;;;;3.47;1.00;;;;;;;15.14;78.06;101415.28;5014308;28;20307;-77
2021/09/17 03:00:32;;;;;;;3.33;0.87;;;;;;;15.14;78.30;101404.94;5030724;28;20747;-77
2021/09/17 03:02:57;;;;;;;2.00;0.80;;;;;;;15.13;78.82;101404.06;5014035;28;20190;-77
2021/09/17 03:05:23;;;;;;;2.43;0.67;;;;;;;15.12;79.08;101409.22;5013342;28;20186;-77
2021/09/17 03:07:48;;;;;;;2.73;0.90;;;;;;;15.14;79.21;101402.38;4997282;28;20230;-78
2021/09/17 03:10:14;;;;;;;6.03;0.80;;;;;;;15.13;78.76;101410.94;5030184;28;20218;-77
2021/09/17 03:12:40;;;;;;;3.50;0.80;;;;;;;15.12;77.73;101404.03;5015954;28;20183;-77
2021/09/17 03:15:06;;;;;;;3.47;0.60;;;;;;;15.10;76.98;101406.59;5015409;28;20652;-77
2021/09/17 03:17:32;;;;;;;3.33;0.90;;;;;;;15.10;77.68;101401.44;5013945;28;20221;-77
2021/09/17 03:19:57;;;;;;;2.43;0.70;;;;;;;15.10;76.29;101398.88;5016006;28;20223;-77
2021/09/17 03:22:22;;;;;;;2.23;0.83;;;;;;;15.11;75.74;101399.75;5014036;28;20656;-78
2021/09/17 03:24:48;;;;;;;1.10;0.70;;;;;;;15.09;76.82;101398.84;5013872;28;20210;-78
2021/09/17 03:27:13;;;;;;;2.83;0.60;;;;;;;15.10;76.80;101398.03;5013642;28;20273;-78
2021/09/17 03:29:39;;;;;;;2.50;0.60;;;;;;;15.07;76.23;101395.41;5015399;28;20179;-78
2021/09/17 03:32:04;;;;;;;2.20;0.60;;;;;;;15.07;75.64;101403.13;5030187;28;20187;-78
2021/09/17 03:34:30;;;;;;;3.47;0.70;;;;;;;15.07;76.19;101396.28;5013460;28;20575;-78
2021/09/17 03:36:55;;;;;;;4.10;1.40;;;;;;;15.07;75.77;101403.13;5030034;28;20215;-78
2021/09/17 03:39:20;;;;;;;3.40;0.70;;;;;;;15.07;76.39;101403.13;5014985;28;20290;-78
2021/09/17 03:41:46;;;;;;;1.93;0.50;;;;;;;15.05;76.41;101403.13;5013255;28;20574;-78
2021/09/17 03:44:13;;;;;;;1.97;0.70;;;;;;;15.04;76.72;101396.25;5014655;28;20237;-78
2021/09/17 03:46:38;;;;;;;1.90;0.63;;;;;;;15.04;75.66;101398.81;5014674;28;20673;-78
2021/09/17 03:49:04;;;;;;;1.20;0.50;;;;;;;15.05;75.79;101397.13;4995967;28;20206;-78
2021/09/17 03:51:30;;;;;;;2.30;0.70;;;;;;;15.05;75.55;101404.84;5029553;28;20238;-77
2021/09/17 03:53:55;;;;;;;3.80;0.83;;;;;;;15.02;76.09;101397.94;5014908;28;20187;-77
2021/09/17 03:56:20;;;;;;;2.23;0.67;;;;;;;15.03;75.68;101401.38;5030371;28;20822;-78
2021/09/17 03:58:46;;;;;;;2.97;0.80;;;;;;;15.03;75.77;101402.25;5014393;28;20230;-78
2021/09/17 04:01:11;;;;;;;3.57;0.73;;;;;;;15.02;75.31;101403.09;5015397;28;20215;-78
2021/09/17 04:03:37;;;;;;;2.17;0.70;;;;;;;15.03;75.41;101406.53;5019550;28;20265;-78
2021/09/17 04:06:02;;;;;;;2.67;0.60;;;;;;;15.01;75.48;101416.81;5019796;28;20626;-78
2021/09/17 04:08:27;;;;;;;2.43;0.50;;;;;;;15.00;75.76;101416.81;5020343;28;20197;-77
2021/09/17 04:10:53;;;;;;;2.13;0.80;;;;;;;14.98;76.16;101413.38;5019316;28;20214;-78
2021/09/17 04:13:18;;;;;;;4.13;1.03;;;;;;;14.97;75.16;101412.47;5021390;28;20187;-78
2021/09/17 04:15:44;;;;;;;2.00;0.50;;;;;;;14.95;75.63;101419.34;5002796;28;20207;-78
2021/09/17 04:18:09;;;;;;;1.57;0.70;;;;;;;14.93;75.10;101418.47;5019677;28;20306;-77
2021/09/17 04:20:35;;;;;;;3.17;0.70;;;;;;;14.92;74.27;101419.31;5019497;28;20608;-78
2021/09/17 04:23:01;;;;;;;1.90;0.70;;;;;;;14.93;74.66;101421.06;5021477;28;20258;-78
2021/09/17 04:25:28;;;;;;;1.80;0.60;;;;;;;14.93;75.24;101417.59;5019578;28;20210;-78
2021/09/17 04:27:53;;;;;;;2.03;0.60;;;;;;;14.90;74.13;101421.03;5020228;28;20187;-77
2021/09/17 04:30:18;;;;;;;0.93;0.60;;;;;;;14.91;73.93;101417.59;5003886;28;20203;-77
2021/09/17 04:32:44;;;;;;;1.27;0.50;;;;;;;14.88;73.44;101419.28;5019882;28;20581;-78
2021/09/17 04:35:11;;;;;;;3.43;0.70;;;;;;;14.86;74.33;101419.25;5019992;28;20199;-77
2021/09/17 04:37:45;;;;;;;1.03;0.50;;;;;;;14.86;73.20;101420.94;5019459;28;20214;-77
2021/09/17 04:40:12;;;;;;;1.43;0.40;;;;;;;14.84;73.13;101420.97;5019746;28;20716;-77
2021/09/17 04:42:38;;;;;;;0.87;0.60;;;;;;;14.83;73.22;101424.34;5020480;28;20196;-77
2021/09/17 04:45:05;;;;;;;1.33;0.63;;;;;;;14.83;74.20;101423.50;5020123;28;20207;-77
2021/09/17 04:47:30;;;;;;;1.90;0.67;;;;;;;14.82;73.27;101429.53;5019356;28;20391;-77
2021/09/17 04:49:56;;;;;;;3.27;0.50;;;;;;;14.80;73.45;101431.19;5020504;28;20203;-77
2021/09/17 04:52:21;;;;;;;0.53;0.40;;;;;;;14.78;73.61;101432.91;5022040;28;20591;-77
2021/09/17 04:54:48;;;;;;;1.10;0.47;;;;;;;14.78;74.14;101433.75;5020722;28;20187;-77
2021/09/17 04:57:14;;;;;;;3.50;0.50;;;;;;;14.79;73.76;101437.22;5021624;28;20560;-77
2021/09/17 04:59:39;;;;;;;1.10;0.60;;;;;;;14.75;73.91;101438.03;5020191;28;20193;-76
2021/09/17 05:02:04;;;;;;;0.43;0.40;;;;;;;14.75;73.95;101438.03;5020468;28;20182;-77
2021/09/17 05:04:30;;;;;;;0.60;0.40;;;;;;;14.74;73.85;101433.72;5021141;28;20183;-77
2021/09/17 05:06:56;;;;;;;1.33;0.50;;;;;;;14.71;73.38;101441.41;5019523;28;20187;-77
2021/09/17 05:09:21;;;;;;;1.07;0.27;;;;;;;14.71;73.02;101446.56;5019771;28;20210;-77
2021/09/17 05:11:47;;;;;;;0.93;0.30;;;;;;;14.68;72.56;101431.06;5019363;28;20214;-77
2021/09/17 05:14:12;;;;;;;0.83;0.47;;;;;;;14.69;72.60;101443.13;5017925;28;20284;-76
2021/09/17 05:16:38;;;;;;;1.90;0.57;;;;;;;14.70;72.50;101434.53;5000451;28;20219;-77
2021/09/17 05:19:03;;;;;;;1.33;0.40;;;;;;;14.67;72.95;101427.63;5018374;28;20207;-76
2021/09/17 05:21:29;;;;;;;1.00;0.50;;;;;;;14.68;73.17;101439.66;5017226;28;20692;-77
2021/09/17 05:23:54;;;;;;;1.07;0.40;;;;;;;14.67;72.91;101430.19;5017067;28;20191;-77
2021/09/17 05:26:20;;;;;;;1.03;0.40;;;;;;;14.67;72.46;101447.38;5016906;28;20183;-77
2021/09/17 05:28:45;;;;;;;1.03;0.40;;;;;;;14.68;72.88;101431.91;5016992;28;20652;-77
2021/09/17 05:31:10;;;;;;;0.80;0.30;;;;;;;14.68;72.48;101433.66;5017928;28;20222;-77
2021/09/17 05:33:36;;;;;;;2.77;0.50;;;;;;;14.65;72.54;101428.44;5017086;28;20657;-77
2021/09/17 05:36:01;;;;;;;1.77;0.57;;;;;;;14.62;71.70;101433.56;5018390;28;20545;-77
2021/09/17 05:38:26;;;;;;;2.43;0.50;;;;;;;14.63;72.14;101436.16;5016527;28;20688;-76
2021/09/17 05:40:52;;;;;;;1.50;0.43;;;;;;;14.66;71.99;101432.75;5013319;28;20306;-77
2021/09/17 05:43:17;;;;;;;0.43;0.30;;;;;;;14.68;72.09;101433.66;5031868;28;20819;-77
2021/09/17 05:45:43;;;;;;;1.30;0.40;;;;;;;14.63;71.60;101443.91;5016429;28;20612;-76
2021/09/17 05:48:08;;;;;;;0.97;0.40;;;;;;;14.67;71.88;101437.94;5016166;28;20183;-77
2021/09/17 05:50:34;;;;;;;0.50;0.30;;;;;;;14.69;72.13;101443.13;5017145;28;20214;-77
2021/09/17 05:52:59;;;;;;;0.63;0.40;;;;;;;14.68;72.43;101444.81;5016232;28;20191;-77
2021/09/17 05:55:28;;;;;;;0.70;0.40;;;;;;;14.71;71.54;101443.97;5017132;28;20201;-76
2021/09/17 05:57:55;;;;;;;1.33;0.30;;;;;;;14.72;71.01;101443.13;5016478;28;20680;-77
2021/09/17 06:00:21;;;;;;;0.70;0.30;;;;;;;14.74;71.70;101444.03;5018749;28;20207;-77
2021/09/17 06:02:46;;;;;;;2.63;0.70;;;;;;;14.76;71.26;101447.47;5017872;28;20781;-77
2021/09/17 06:05:11;;;;;;;0.30;0.30;;;;;;;14.78;71.20;101440.66;5016923;28;20247;-76
2021/09/17 06:07:42;;;;;;;1.53;0.40;;;;;;;14.81;71.39;101440.66;5015713;28;20684;-77
2021/09/17 06:10:11;;;;;;;0.40;0.40;;;;;;;14.83;71.00;101439.00;5015844;28;20692;-77
2021/09/17 06:12:38;;;;;;;0.30;0.30;;;;;;;14.80;71.05;101441.50;4999021;28;20206;-78
2021/09/17 06:15:04;;;;;;;0.87;0.40;;;;;;;14.83;70.34;101444.16;5015274;28;20195;-78
2021/09/17 06:17:32;;;;;;;1.73;0.30;;;;;;;14.82;70.57;101448.41;5015696;28;20303;-77
2021/09/17 06:19:58;;;;;;;2.17;0.40;;;;;;;14.82;70.99;101443.25;5015075;28;20688;-77
2021/09/17 06:22:23;;;;;;;1.37;0.40;;;;;;;14.81;70.26;101449.28;5016939;28;20202;-78
2021/09/17 06:24:48;;;;;;;1.57;0.50;;;;;;;14.84;70.58;101451.03;5015213;28;20202;-77
2021/09/17 06:27:14;;;;;;;0.30;0.30;;;;;;;14.83;71.13;101447.56;5015252;28;20183;-77
2021/09/17 06:29:40;;;;;;;0.43;0.30;;;;;;;14.85;71.16;101452.75;5015011;28;20192;-78
2021/09/17 06:32:05;;;;;;;0.30;0.30;;;;;;;14.88;70.19;101457.97;5016945;28;20190;-77
2021/09/17 06:34:31;;;;;;;0.70;0.30;;;;;;;15.00;70.52;101450.34;5014306;28;20617;-77
2021/09/17 06:36:56;;;;;;;0.47;0.40;;;;;;;15.04;70.38;101458.16;5014977;28;20318;-78
2021/09/17 06:39:22;;;;;;;0.73;0.70;;;;;;;15.05;70.08;101461.59;5016757;28;20226;-78
2021/09/17 06:41:49;;;;;;;1.90;0.60;;;;;;;15.09;70.65;101459.06;5014933;28;20210;-78
2021/09/17 06:44:15;;;;;;;0.63;0.60;;;;;;;15.15;69.90;101463.44;5015280;28;20184;-78
2021/09/17 06:46:41;;;;;;;1.33;0.53;;;;;;;15.17;69.35;101461.72;5014544;28;20333;-77
2021/09/17 06:49:07;;;;;;;1.60;0.47;;;;;;;15.22;69.01;101462.63;5014686;28;20258;-78
2021/09/17 06:51:32;;;;;;;0.70;0.40;;;;;;;15.26;68.68;101461.81;4997930;28;20748;-77
2021/09/17 06:53:57;;;;;;;1.77;0.60;;;;;;;15.40;68.78;101457.69;5015381;28;20232;-77
2021/09/17 06:56:23;;;;;;;1.67;0.57;;;;;;;15.57;68.75;101446.66;4997922;28;20215;-77
2021/09/17 06:58:48;;;;;;;0.40;0.40;;;;;;;15.67;67.00;101456.25;5015140;28;20287;-78
2021/09/17 07:01:13;;;;;;;1.70;0.40;;;;;;;16.19;65.81;101453.19;5015755;28;20213;-78
2021/09/17 07:03:39;;;;;;;1.13;0.43;;;;;;;16.49;65.04;101440.44;5014173;28;20187;-78
2021/09/17 07:06:04;;;;;;;0.67;0.60;;;;;;;16.58;64.53;101439.66;5014771;28;20199;-77
2021/09/17 07:08:30;;;;;;;1.50;0.50;;;;;;;16.78;64.13;101432.81;5014776;28;20229;-78
2021/09/17 07:10:55;;;;;;;1.53;0.40;;;;;;;16.97;63.71;101447.53;4999089;28;20203;-78
2021/09/17 07:13:20;;;;;;;0.80;0.40;;;;;;;17.08;63.08;101443.28;5016623;28;20191;-78
2021/09/17 07:15:46;;;;;;;0.67;0.37;;;;;;;16.97;62.92;101443.25;5014795;28;20188;-78
2021/09/17 07:18:11;;;;;;;1.47;0.57;;;;;;;17.31;61.47;101439.88;5015698;28;20212;-78
2021/09/17 07:20:38;;;;;;;2.70;0.40;;;;;;;17.37;62.11;101437.28;5014200;28;20222;-78
2021/09/17 07:23:05;;;;;;;1.63;0.40;;;;;;;17.36;62.26;101443.31;5014478;28;20238;-78
2021/09/17 07:25:32;;;;;;;0.97;0.30;;;;;;;17.45;61.00;101439.94;5015350;28;20176;-76
2021/09/17 07:27:57;;;;;;;0.83;0.40;;;;;;;17.45;60.76;101442.53;5013781;28;20238;-78
2021/09/17 07:30:23;;;;;;;0.30;0.30;;;;;;;17.53;59.63;101445.97;5014611;28;20215;-78
2021/09/17 07:32:50;;;;;;;0.73;0.60;;;;;;;17.52;60.12;101445.13;4997968;28;20183;-78
2021/09/17 07:35:15;;;;;;;0.87;0.30;;;;;;;17.71;60.57;101443.38;5014049;28;20175;-78
2021/09/17 07:37:41;;;;;;;2.50;0.37;;;;;;;17.71;58.55;101449.44;5014492;28;20899;-78
2021/09/17 07:40:07;;;;;;;0.67;0.40;;;;;;;17.80;57.81;101445.97;4997864;28;20210;-78
2021/09/17 07:42:32;;;;;;;0.67;0.30;;;;;;;17.82;58.54;101447.69;4997963;28;20617;-78
2021/09/17 07:44:58;;;;;;;0.47;0.33;;;;;;;17.80;58.41;101446.84;5014461;28;20198;-78
2021/09/17 07:47:23;;;;;;;0.30;0.30;;;;;;;17.96;58.06;101448.56;5014030;28;20187;-78
2021/09/17 07:49:49;;;;;;;0.77;0.30;;;;;;;18.09;56.87;101449.41;5015275;28;20199;-77
2021/09/17 07:52:14;;;;;;;0.77;0.40;;;;;;;18.21;56.56;101451.97;5013948;28;20214;-78
2021/09/17 07:54:39;;;;;;;0.23;0.23;;;;;;;18.54;56.57;101450.22;5015002;28;20180;-78
2021/09/17 07:57:05;;;;;;;0.20;0.20;;;;;;;18.76;56.62;101451.00;5013189;28;20229;-78
2021/09/17 07:59:30;;;;;;;0.60;0.43;;;;;;;18.88;56.52;101450.94;5013115;28;20211;-78
2021/09/17 08:01:56;;;;;;;2.30;0.40;;;;;;;19.08;55.23;101454.28;5014731;28;20683;-78
2021/09/17 08:04:21;;;;;;;0.40;0.40;;;;;;;18.98;54.72;101455.22;5013281;28;20200;-78
2021/09/17 08:06:47;;;;;;;0.50;0.50;;;;;;;18.95;54.34;101460.41;5013473;28;20202;-78
2021/09/17 08:09:12;;;;;;;0.57;0.40;;;;;;;19.08;54.12;101469.88;5013671;28;20187;-78
2021/09/17 08:11:38;;;;;;;0.37;0.37;;;;;;;19.01;55.07;101474.22;5015185;28;20199;-78
2021/09/17 08:14:04;;;;;;;0.97;0.40;;;;;;;19.15;55.19;101472.44;5014447;28;20183;-78
2021/09/17 08:16:30;;;;;;;0.70;0.50;;;;;;;18.98;54.22;101476.00;5013679;28;20219;-78
2021/09/17 08:18:55;;;;;;;0.60;0.30;;;;;;;19.20;53.03;101467.22;5013678;28;20191;-78
2021/09/17 08:21:20;;;;;;;0.40;0.40;;;;;;;19.24;53.45;101468.94;5013642;28;20218;-78
2021/09/17 08:23:46;;;;;;;1.50;0.40;;;;;;;19.12;53.70;101474.19;4997024;28;20188;-78
2021/09/17 08:26:11;;;;;;;0.57;0.40;;;;;;;19.08;53.70;101473.34;5007963;28;20238;-78
2021/09/17 08:28:36;;;;;;;0.43;0.30;;;;;;;19.57;53.56;101472.19;5014418;28;20176;-78
2021/09/17 08:31:03;;;;;;;0.40;0.33;;;;;;;19.10;53.04;101474.19;5013207;28;20214;-78
2021/09/17 08:33:30;;;;;;;0.40;0.40;;;;;;;19.49;53.49;101465.34;5014854;28;20187;-76
2021/09/17 08:36:00;;;;;;;0.40;0.40;;;;;;;19.83;52.11;101478.06;5014084;28;20199;-76
2021/09/17 08:38:26;;;;;;;0.47;0.30;;;;;;;19.54;51.99;101469.63;5014734;28;20219;-76
2021/09/17 08:40:56;;;;;;;0.70;0.40;;;;;;;19.94;51.43;101465.81;5016346;28;20538;-76
2021/09/17 08:43:23;;;;;;;0.40;0.30;;;;;;;20.06;51.59;101473.53;5016408;28;20187;-76
2021/09/17 08:45:49;;;;;;;0.47;0.40;;;;;;;20.37;50.53;101467.19;5014349;28;20431;-77
2021/09/17 08:48:27;;;;;;;2.67;0.30;;;;;;;20.35;50.83;101473.25;5016493;28;20179;-77
2021/09/17 08:50:53;;;;;;;0.70;0.40;;;;;;;20.64;51.28;101466.00;5017423;28;20207;-77
2021/09/17 08:53:19;;;;;;;1.43;0.40;;;;;;;20.50;51.65;101471.34;5017654;28;20229;-76
2021/09/17 08:55:49;;;;;;;0.93;0.47;;;;;;;21.33;50.78;101465.97;5016915;28;20214;-78
2021/09/17 08:58:15;;;;;;;1.00;0.50;;;;;;;21.48;48.42;101464.88;5017545;28;20219;-77
2021/09/17 09:00:42;;;;;;;2.03;0.70;;;;;;;21.82;45.77;101464.38;5017932;28;20627;-77
2021/09/17 09:03:09;;;;;;;0.80;0.30;;;;;;;21.47;47.52;101465.78;5017435;28;20187;-77
2021/09/17 09:05:36;;;;;;;0.40;0.40;;;;;;;20.28;50.01;101466.41;5001640;28;20195;-77
2021/09/17 09:08:05;;;;;;;0.93;0.40;;;;;;;19.93;50.89;101471.03;5016847;28;20238;-77
2021/09/17 09:10:31;;;;;;;1.37;0.50;;;;;;;19.64;51.71;101483.41;5016908;28;20252;-76
2021/09/17 09:12:58;;;;;;;0.60;0.40;;;;;;;19.72;51.49;101473.81;5017021;28;20818;-77
2021/09/17 09:15:25;;;;;;;0.53;0.40;;;;;;;19.41;52.76;101486.16;5018092;28;20198;-77
2021/09/17 09:17:56;;;;;;;0.93;0.53;;;;;;;19.27;53.36;101492.31;5018341;28;20591;-77
2021/09/17 09:20:35;;;;;;;0.67;0.50;;;;;;;19.22;54.00;101474.16;5017629;28;20265;-77
2021/09/17 09:23:13;;;;;;;0.97;0.77;;;;;;;26.67;39.01;101450.53;5018937;28;20881;-77
2021/09/17 09:25:54;;;;;;;0.60;0.50;;;;;;;23.43;43.93;101465.56;5017274;28;20234;-77
2021/09/17 09:28:42;;;;;;;1.53;0.53;;;;;;;25.08;41.02;101454.13;5014695;28;20355;-77
2021/09/17 09:31:15;;;;;;;1.50;0.85;;;;;;;29.74;33.30;101441.47;5013210;28;20219;-77
2021/09/17 09:33:42;;;;;;;1.27;0.80;;;;;;;31.45;30.42;101442.81;5014552;28;20225;-77
2021/09/17 09:36:09;;;;;;;1.13;1.02;;;;;;;31.68;30.13;101444.09;5013188;28;20191;-77
2021/09/17 09:38:46;;;;;;;0.95;0.88;;;;;;;26.66;36.38;101462.81;5013446;28;20657;-77
2021/09/17 09:41:33;;;;;;;2.25;1.00;;;;;;;23.23;43.71;101470.34;5013730;28;20215;-76
2021/09/17 09:44:20;;;;;;;1.88;0.82;;;;;;;21.49;48.20;101475.31;5014800;28;20190;-76
2021/09/17 09:46:47;;;;;;;2.70;0.93;;;;;;;20.84;49.80;101484.84;4996957;28;20217;-76
2021/09/17 09:49:14;;;;;;;2.35;2.15;;;;;;;29.36;33.38;101439.81;5013967;28;20191;-77
2021/09/17 09:51:54;;;;;;;1.05;0.90;;;;;;;28.34;35.08;101444.56;5014691;28;20211;-77
2021/09/17 09:54:23;;;;;;;1.42;1.02;;;;;;;28.65;33.42;101445.78;5015458;28;20218;-77
2021/09/17 09:56:50;;;;;;;0.80;0.80;;;;;;;23.93;41.79;101465.19;5014449;28;20211;-77
2021/09/17 09:59:20;;;;;;;1.60;0.60;;;;;;;21.90;46.20;101466.84;4998180;28;20198;-77
2021/09/17 10:01:46;;;;;;;1.33;0.70;;;;;;;20.95;48.60;101478.66;5013827;28;20596;-77
2021/09/17 10:04:12;;;;;;;0.50;0.50;;;;;;;20.57;50.43;101485.16;5014100;28;20195;-76
2021/09/17 10:06:39;;;;;;;1.10;0.50;;;;;;;20.35;50.35;101483.66;5014197;28;20222;-76
2021/09/17 10:09:07;;;;;;;1.57;0.60;;;;;;;20.39;51.12;101482.75;5015429;28;20186;-76
2021/09/17 10:11:33;;;;;;;1.60;0.80;;;;;;;19.97;51.98;101476.22;4997553;28;20583;-76
2021/09/17 10:14:01;;;;;;;2.87;0.77;;;;;;;19.87;52.54;101490.16;5014185;28;20191;-76
2021/09/17 10:16:28;;;;;;;1.37;0.70;;;;;;;19.56;52.34;101479.97;5016055;28;20194;-76
2021/09/17 10:18:55;;;;;;;1.63;0.70;;;;;;;19.48;53.19;101485.25;5015890;28;20183;-76
2021/09/17 10:21:52;;;;;;;2.40;0.77;;;;;;;19.10;54.30;101491.50;5015075;28;20330;-76
2021/09/17 10:24:26;;;;;;;0.60;0.50;;;;;;;18.73;54.98;101483.00;5016023;28;20253;-76
2021/09/17 10:26:55;;;;;;;0.63;0.50;;;;;;;18.50;55.68;101494.31;5016554;28;20266;-76
2021/09/17 10:29:33;;;;;;;0.80;0.57;;;;;;;18.54;55.88;101485.66;5014955;28;20282;-76
2021/09/17 10:32:00;;;;;;;0.50;0.40;;;;;;;18.34;54.60;101482.25;5014938;28;20191;-76
2021/09/17 10:34:45;;;;;;;1.23;0.60;;;;;;;18.11;54.71;101487.44;5014877;28;20202;-74
2021/09/17 10:37:10;;;;;;;1.53;0.70;;;;;;;18.15;55.73;101488.31;5014675;28;20657;-76
2021/09/17 10:39:38;;;;;;;0.53;0.50;;;;;;;18.04;56.10;101490.00;5015339;28;20172;-76
2021/09/17 10:42:16;;;;;;;0.50;0.40;;;;;;;17.92;56.01;101490.88;5014975;28;20187;-76
2021/09/17 10:45:00;;;;;;;1.80;0.43;;;;;;;17.75;56.46;101487.44;5014993;28;20203;-76
2021/09/17 10:47:44;;;;;;;1.07;0.50;;;;;;;17.97;56.25;101490.91;5016216;28;20213;-76
2021/09/17 10:50:13;;;;;;;0.93;0.50;;;;;;;18.30;55.30;101486.56;5015879;28;20634;-76
2021/09/17 10:52:50;;;;;;;0.77;0.47;;;;;;;18.11;55.65;101489.16;5016786;28;20183;-77
2021/09/17 10:55:43;;;;;;;0.50;0.50;;;;;;;17.94;56.14;101483.13;5016650;28;20202;-78
2021/09/17 10:58:24;;;;;;;0.50;0.40;;;;;;;17.67;56.97;101488.28;4997629;28;20281;-78
2021/09/17 11:00:52;;;;;;;0.93;0.40;;;;;;;17.54;58.75;101490.00;5014425;28;20207;-78
2021/09/17 11:03:36;;;;;;;2.33;0.53;;;;;;;17.44;59.18;101495.16;5014205;28;20684;-79
2021/09/17 11:08:45;;;;;;;0.70;0.40;;;;;;;17.53;59.78;101496.06;5014389;28;20231;-78
2021/09/17 11:11:26;;;;;;;1.47;0.40;;;;;;;17.65;59.21;101484.84;5013270;28;20242;-78
2021/09/17 11:13:53;;;;;;;1.00;0.50;;;;;;;17.63;58.03;101496.91;5015926;28;20216;-78
2021/09/17 11:16:21;;;;;;;1.80;0.43;;;;;;;17.61;59.18;101494.34;5013592;28;20195;-78
2021/09/17 11:19:05;;;;;;;1.93;0.70;;;;;;;17.49;59.83;101493.44;5016316;28;20544;-79
2021/09/17 11:21:37;;;;;;;2.10;0.90;;;;;;;17.34;59.73;101494.25;5015860;28;20706;-78
2021/09/17 11:24:04;;;;;;;1.17;0.70;;;;;;;17.25;59.66;101502.00;5014249;28;20199;-78
2021/09/17 11:26:33;;;;;;;1.97;0.50;;;;;;;17.04;59.72;101496.75;5013903;28;20684;-78